Time;durP1;ratioP1;P1;durP2;ratioP2;P2;SDS_P1;SDS_P2;PMS_P1;PMS_P2;Temp;Humidity;BMP_temperature;BMP_pressure;BME280_temperature;BME280_humidity;BME280_pressure;Samples;Min_cycle;Max_cycle;Signal;HPM_P1;HPM_P2
2023/06/20 00:00:19;;;;;;;8.00;7.00;;;;;;;24.21;57.38;100200.11;108093;1281;22173;-82
2023/06/20 00:02:44;;;;;;;10.30;7.30;;;;;;;24.20;57.34;100199.64;108108;1286;21989;-84
2023/06/20 00:05:10;;;;;;;9.80;7.60;;;;;;;24.19;57.42;100200.98;108209;1280;21999;-60
2023/06/20 00:07:36;;;;;;;9.80;7.50;;;;;;;24.16;57.46;100199.17;108119;1286;22005;-83
2023/06/20 00:10:01;;;;;;;11.50;7.30;;;;;;;24.15;57.52;100200.14;108118;1277;22021;-82
2023/06/20 00:12:27;;;;;;;12.90;8.00;;;;;;;24.14;57.40;100199.86;108142;1277;21986;-64
2023/06/20 00:14:53;;;;;;;10.30;7.30;;;;;;;24.13;57.55;100198.85;108182;1281;21989;-82
2023/06/20 00:17:19;;;;;;;10.20;7.50;;;;;;;24.12;57.65;100198.20;108357;1284;21988;-61
2023/06/20 00:19:44;;;;;;;12.10;7.30;;;;;;;24.10;57.54;100197.11;108255;1286;22547;-64
2023/06/20 00:22:10;;;;;;;12.60;7.30;;;;;;;24.08;57.68;100201.06;108211;1283;21991;-61
2023/06/20 00:24:36;;;;;;;13.20;7.80;;;;;;;24.04;57.72;100202.21;108107;1284;22005;-61
2023/06/20 00:27:02;;;;;;;9.70;7.30;;;;;;;24.02;57.61;100204.34;108160;1281;21988;-60
2023/06/20 00:29:28;;;;;;;10.90;7.30;;;;;;;24.00;57.71;100206.60;108245;1286;21986;-83
2023/06/20 00:31:54;;;;;;;10.30;7.10;;;;;;;23.97;57.81;100208.45;108232;1284;21990;-61
2023/06/20 00:34:19;;;;;;;10.30;7.60;;;;;;;23.94;57.89;100205.44;108185;1277;21987;-83
2023/06/20 00:36:45;;;;;;;10.10;7.40;;;;;;;23.90;57.98;100208.36;108219;1277;21997;-83
2023/06/20 00:39:10;;;;;;;11.90;6.90;;;;;;;23.87;58.07;100210.00;107991;1277;194307;-61
2023/06/20 00:41:36;;;;;;;9.40;7.10;;;;;;;23.85;58.30;100208.17;108130;1281;22001;-81
2023/06/20 00:44:05;;;;;;;9.20;7.20;;;;;;;23.81;58.28;100207.91;107967;1286;21987;-61
2023/06/20 00:46:37;;;;;;;10.10;7.30;;;;;;;23.78;58.34;100207.59;108166;1286;21987;-60
2023/06/20 00:49:04;;;;;;;11.00;7.40;;;;;;;23.75;58.88;100214.08;108186;1277;21992;-82
2023/06/20 00:51:30;;;;;;;9.30;7.50;;;;;;;23.67;58.61;100215.89;108117;1286;21987;-61
2023/06/20 00:53:56;;;;;;;11.80;7.70;;;;;;;23.60;58.68;100215.45;108100;1280;21987;-61
2023/06/20 00:56:24;;;;;;;8.90;7.30;;;;;;;23.57;58.82;100215.15;108142;1278;23683;-83
2023/06/20 00:58:49;;;;;;;10.90;7.70;;;;;;;23.52;58.64;100217.09;108178;1281;21993;-83
2023/06/20 01:01:18;;;;;;;13.60;7.50;;;;;;;23.45;58.79;100215.80;108135;1281;23673;-61
2023/06/20 01:03:46;;;;;;;11.20;6.80;;;;;;;23.39;59.01;100216.05;108158;1277;21995;-61
2023/06/20 01:06:32;;;;;;;11.50;7.80;;;;;;;23.37;59.22;100216.03;108287;1286;22336;-81
2023/06/20 01:09:33;;;;;;;9.60;7.50;;;;;;;23.37;59.34;100217.23;108199;1286;21992;-61
2023/06/20 01:12:20;;;;;;;9.40;7.30;;;;;;;23.35;59.52;100217.39;108080;1286;21994;-81
2023/06/20 01:14:49;;;;;;;11.10;8.70;;;;;;;23.30;59.86;100215.39;108242;1286;21996;-82
2023/06/20 01:17:55;;;;;;;11.20;7.90;;;;;;;23.26;60.08;100218.17;108241;1278;21986;-62
2023/06/20 01:20:28;;;;;;;9.70;7.50;;;;;;;23.22;59.95;100217.14;107748;1286;22734;-61
2023/06/20 01:23:06;;;;;;;10.00;8.00;;;;;;;23.20;60.51;100216.73;108133;1283;24217;-60
2023/06/20 01:25:46;;;;;;;10.50;7.90;;;;;;;23.18;60.58;100223.64;108228;1286;21988;-61
2023/06/20 01:28:27;;;;;;;10.80;7.70;;;;;;;23.18;60.78;100225.98;108113;1274;21989;-60
2023/06/20 01:31:04;;;;;;;11.40;7.90;;;;;;;23.19;60.59;100227.71;108219;1286;21989;-81
2023/06/20 01:33:35;;;;;;;11.10;8.60;;;;;;;23.21;60.88;100228.64;108199;1284;21994;-82
2023/06/20 01:36:01;;;;;;;11.90;8.10;;;;;;;23.19;61.26;100229.13;108176;1286;23682;-80
2023/06/20 01:38:28;;;;;;;10.60;8.00;;;;;;;23.15;60.90;100231.77;107936;1280;22024;-82
2023/06/20 01:40:53;;;;;;;10.70;8.80;;;;;;;23.12;60.90;100236.62;108183;1280;21985;-61
2023/06/20 01:43:20;;;;;;;12.50;8.40;;;;;;;23.11;61.20;100239.00;108121;1286;21987;-81
2023/06/20 01:45:45;;;;;;;10.00;7.60;;;;;;;23.10;61.41;100238.52;108158;1284;21994;-60
2023/06/20 01:48:11;;;;;;;18.80;8.10;;;;;;;23.10;61.36;100242.42;107944;1280;21984;-60
2023/06/20 01:50:37;;;;;;;14.10;7.90;;;;;;;23.10;61.30;100242.81;107949;1280;22448;-80
2023/06/20 01:53:02;;;;;;;14.60;7.80;;;;;;;23.10;61.19;100246.95;108012;1284;23627;-80
2023/06/20 01:55:29;;;;;;;10.10;7.90;;;;;;;23.09;61.23;100248.06;108078;1284;21984;-80
2023/06/20 01:57:57;;;;;;;15.10;8.60;;;;;;;23.10;61.35;100246.75;108138;1277;21989;-80
2023/06/20 02:00:24;;;;;;;11.90;8.40;;;;;;;23.11;61.38;100250.29;108226;1281;21986;-60
2023/06/20 02:02:50;;;;;;;11.60;8.20;;;;;;;23.10;61.47;100252.80;108092;1286;22044;-80
2023/06/20 02:05:16;;;;;;;11.30;8.50;;;;;;;23.11;61.49;100256.00;107950;1284;22004;-61
2023/06/20 02:07:42;;;;;;;11.80;7.70;;;;;;;23.13;61.61;100256.93;108090;1278;21985;-79
2023/06/20 02:10:08;;;;;;;11.10;8.00;;;;;;;23.15;61.49;100257.34;108089;1283;24402;-61
2023/06/20 02:12:34;;;;;;;10.30;8.30;;;;;;;23.16;61.58;100257.60;108216;1281;22426;-83
2023/06/20 02:14:59;;;;;;;13.50;7.90;;;;;;;23.18;61.75;100253.39;108076;1286;23771;-60
2023/06/20 02:17:25;;;;;;;14.80;8.50;;;;;;;23.17;61.87;100252.34;108080;1284;21987;-65
2023/06/20 02:19:51;;;;;;;14.90;8.70;;;;;;;23.16;62.32;100248.85;108107;1286;21992;-78
2023/06/20 02:22:17;;;;;;;16.70;8.40;;;;;;;23.11;62.61;100253.28;108245;1281;21995;-60
2023/06/20 02:24:43;;;;;;;14.20;8.90;;;;;;;23.07;62.84;100256.98;108084;1284;22175;-82
2023/06/20 02:27:09;;;;;;;11.60;8.10;;;;;;;23.04;63.12;100260.02;108203;1284;23616;-60
2023/06/20 02:29:38;;;;;;;9.60;7.30;;;;;;;23.02;62.84;100256.73;108021;1284;22002;-62
2023/06/20 02:32:03;;;;;;;16.30;9.40;;;;;;;23.05;62.76;100253.54;107862;1283;21989;-80
2023/06/20 02:34:30;;;;;;;25.50;9.20;;;;;;;23.07;63.10;100254.13;108147;1283;21991;-61
2023/06/20 02:36:57;;;;;;;13.40;8.80;;;;;;;23.07;63.23;100258.91;108107;1277;21984;-60
2023/06/20 02:39:23;;;;;;;13.80;9.00;;;;;;;23.08;62.96;100261.93;107821;1286;21993;-61
2023/06/20 02:41:49;;;;;;;12.40;7.90;;;;;;;23.11;63.15;100262.99;108108;1281;21987;-69
2023/06/20 02:44:15;;;;;;;15.50;9.20;;;;;;;23.13;63.35;100269.61;108089;1284;21986;-60
2023/06/20 02:46:59;;;;;;;12.10;8.20;;;;;;;23.14;63.50;100271.55;108131;1279;21987;-61
2023/06/20 02:49:48;;;;;;;11.90;7.40;;;;;;;23.15;63.39;100277.20;108137;1286;21987;-60
2023/06/20 02:52:27;;;;;;;16.10;8.30;;;;;;;23.20;63.45;100278.29;108223;1287;23711;-80
2023/06/20 02:55:30;;;;;;;12.30;8.50;;;;;;;23.26;63.50;100279.92;108037;1286;21982;-78
2023/06/20 02:57:58;;;;;;;9.60;7.70;;;;;;;23.30;63.78;100277.64;108090;1280;24439;-77
2023/06/20 03:00:24;;;;;;;12.10;7.80;;;;;;;23.33;63.65;100279.05;108230;1286;21989;-60
2023/06/20 03:02:51;;;;;;;9.90;7.80;;;;;;;23.36;63.77;100281.02;108047;1286;21987;-60
2023/06/20 03:05:18;;;;;;;12.40;8.40;;;;;;;23.40;63.67;100281.28;108165;1278;23732;-61
2023/06/20 03:07:44;;;;;;;12.70;8.20;;;;;;;23.46;63.75;100282.67;108223;1286;21987;-59
2023/06/20 03:10:11;;;;;;;11.10;8.30;;;;;;;23.51;63.73;100279.16;108255;1285;21987;-60
2023/06/20 03:12:38;;;;;;;10.40;8.20;;;;;;;23.55;63.76;100281.71;108166;1286;21999;-77
2023/06/20 03:15:04;;;;;;;11.10;7.80;;;;;;;23.59;63.82;100280.72;108100;1286;23052;-60
2023/06/20 03:17:35;;;;;;;13.20;7.50;;;;;;;23.64;63.88;100281.25;108193;1286;22006;-59
2023/06/20 03:20:09;;;;;;;13.50;8.00;;;;;;;23.71;63.90;100282.81;108247;1283;22177;-77
2023/06/20 03:22:35;;;;;;;9.00;7.90;;;;;;;23.75;63.80;100280.16;108138;1286;21986;-60
2023/06/20 03:25:01;;;;;;;13.00;8.10;;;;;;;23.81;64.08;100276.38;108120;1281;21976;-78
2023/06/20 03:27:26;;;;;;;11.70;7.80;;;;;;;23.86;63.76;100279.61;108179;1284;21983;-59
2023/06/20 03:29:52;;;;;;;10.70;8.30;;;;;;;23.90;63.97;100278.92;108095;1286;21999;-79
2023/06/20 03:32:18;;;;;;;13.10;7.80;;;;;;;23.95;63.99;100280.80;108289;1278;21993;-60
2023/06/20 03:34:44;;;;;;;16.60;8.30;;;;;;;23.99;63.81;100281.77;108336;1286;24328;-78
2023/06/20 03:37:10;;;;;;;13.10;8.50;;;;;;;24.05;63.81;100285.13;108374;1281;21984;-77
2023/06/20 03:39:36;;;;;;;11.00;8.20;;;;;;;24.11;63.84;100284.73;108359;1286;21999;-78
2023/06/20 03:42:01;;;;;;;11.20;7.50;;;;;;;24.18;63.84;100283.51;108343;1277;23609;-78
2023/06/20 03:44:27;;;;;;;15.60;8.60;;;;;;;24.25;63.84;100282.33;108373;1278;21997;-79
2023/06/20 03:46:53;;;;;;;11.70;8.10;;;;;;;24.33;63.84;100283.70;108340;1286;21992;-79
2023/06/20 03:49:19;;;;;;;10.40;7.40;;;;;;;24.42;63.55;100285.75;108166;1287;23739;-59
2023/06/20 03:51:44;;;;;;;12.70;7.70;;;;;;;24.52;63.78;100287.34;108336;1281;22749;-59
2023/06/20 03:54:10;;;;;;;15.80;8.50;;;;;;;24.64;63.87;100288.48;108139;1283;21989;-59
2023/06/20 03:56:36;;;;;;;13.20;8.30;;;;;;;24.77;63.96;100290.24;108347;1284;21986;-59
2023/06/20 03:59:02;;;;;;;13.80;8.20;;;;;;;24.90;63.70;100292.67;108381;1284;21987;-59
2023/06/20 04:01:27;;;;;;;11.90;7.90;;;;;;;25.04;63.71;100298.50;108286;1286;21993;-60
2023/06/20 04:03:54;;;;;;;9.00;7.50;;;;;;;25.18;63.67;100305.19;108110;1284;22021;-65
2023/06/20 04:06:20;;;;;;;10.50;7.40;;;;;;;25.31;63.68;100303.80;108132;1277;21987;-77
2023/06/20 04:08:46;;;;;;;13.00;8.10;;;;;;;25.46;63.31;100303.95;108132;1286;21982;-76
2023/06/20 04:11:13;;;;;;;10.30;8.20;;;;;;;25.58;62.73;100305.99;108149;1287;22004;-77
2023/06/20 04:13:39;;;;;;;11.20;7.60;;;;;;;25.66;62.99;100306.60;108111;1286;21989;-76
2023/06/20 04:16:05;;;;;;;10.80;8.10;;;;;;;25.77;62.85;100306.87;108105;1284;21985;-59
2023/06/20 04:18:32;;;;;;;14.20;7.80;;;;;;;25.87;62.44;100306.64;108069;1277;22000;-59
2023/06/20 04:20:57;;;;;;;10.90;7.20;;;;;;;25.95;62.28;100307.23;108123;1286;21975;-61
2023/06/20 04:23:23;;;;;;;11.10;7.50;;;;;;;26.04;62.04;100311.63;108142;1281;22025;-60
2023/06/20 04:25:48;;;;;;;10.30;7.90;;;;;;;26.15;61.69;100313.64;108125;1281;21991;-75
2023/06/20 04:28:17;;;;;;;9.90;8.10;;;;;;;26.27;61.68;100319.16;108076;1281;21985;-60
2023/06/20 04:30:43;;;;;;;10.70;8.00;;;;;;;26.34;61.62;100318.98;108131;1277;21985;-77
2023/06/20 04:33:08;;;;;;;10.60;8.60;;;;;;;26.41;61.53;100323.86;108186;1277;22450;-59
2023/06/20 04:35:34;;;;;;;16.50;7.80;;;;;;;26.47;61.37;100324.41;108109;1287;21995;-75
2023/06/20 04:38:03;;;;;;;15.80;7.70;;;;;;;26.57;61.47;100328.34;108125;1286;21994;-76
2023/06/20 04:40:29;;;;;;;9.50;7.40;;;;;;;26.68;61.44;100331.70;108096;1286;23641;-76
2023/06/20 04:42:55;;;;;;;8.90;7.60;;;;;;;26.81;61.57;100331.80;108293;1286;21998;-77
2023/06/20 04:45:23;;;;;;;10.80;7.60;;;;;;;26.94;61.49;100333.94;108142;1286;21992;-60
2023/06/20 04:47:50;;;;;;;10.60;7.30;;;;;;;27.08;61.10;100336.13;108233;1286;22031;-60
2023/06/20 04:50:16;;;;;;;9.80;8.50;;;;;;;27.18;60.99;100338.49;108113;1286;21992;-76
2023/06/20 04:52:42;;;;;;;11.90;8.00;;;;;;;27.30;60.98;100336.95;108111;1283;21988;-75
2023/06/20 04:55:08;;;;;;;10.50;7.40;;;;;;;27.42;60.72;100336.15;108014;1277;21987;-60
2023/06/20 04:57:34;;;;;;;11.30;7.90;;;;;;;27.55;60.62;100337.25;108138;1280;22025;-74
2023/06/20 05:00:00;;;;;;;10.00;7.70;;;;;;;27.72;60.54;100344.85;108124;1288;22053;-74
2023/06/20 05:02:25;;;;;;;10.70;7.50;;;;;;;27.86;60.09;100349.08;108133;1287;22010;-74
2023/06/20 05:04:51;;;;;;;11.20;7.50;;;;;;;28.00;59.72;100350.52;107998;1287;22015;-76
2023/06/20 05:07:17;;;;;;;10.50;8.60;;;;;;;28.16;59.63;100352.83;108088;1277;22002;-76
2023/06/20 05:09:43;;;;;;;12.20;7.90;;;;;;;28.34;59.39;100355.61;108124;1284;22001;-75
2023/06/20 05:12:09;;;;;;;10.50;7.90;;;;;;;28.48;58.94;100352.91;108092;1284;21986;-75
2023/06/20 05:14:35;;;;;;;9.60;7.60;;;;;;;28.60;58.63;100355.64;108030;1287;23676;-60
2023/06/20 05:17:01;;;;;;;12.90;7.50;;;;;;;28.76;58.69;100363.27;108329;1277;21989;-60
2023/06/20 05:19:26;;;;;;;12.60;7.50;;;;;;;28.89;57.63;100363.80;108277;1286;22024;-60
2023/06/20 05:21:52;;;;;;;10.60;8.10;;;;;;;29.01;57.73;100361.62;108158;1281;21990;-61
2023/06/20 05:24:18;;;;;;;10.20;7.90;;;;;;;29.13;57.16;100366.46;108120;1286;21993;-61
2023/06/20 05:26:43;;;;;;;11.40;7.80;;;;;;;29.22;56.95;100368.02;108182;1284;22000;-61
2023/06/20 05:29:09;;;;;;;12.40;7.40;;;;;;;29.36;57.31;100375.95;108125;1287;21987;-61
2023/06/20 05:31:41;;;;;;;10.30;8.10;;;;;;;29.56;57.19;100377.63;108199;1287;21991;-61
2023/06/20 05:34:07;;;;;;;10.40;6.50;;;;;;;29.70;56.80;100377.20;108108;1284;21995;-72
2023/06/20 05:36:33;;;;;;;8.90;7.10;;;;;;;29.83;56.71;100376.02;107947;1278;22544;-72
2023/06/20 05:38:59;;;;;;;13.80;7.70;;;;;;;29.94;56.24;100372.30;108073;1281;21995;-72
2023/06/20 05:41:25;;;;;;;11.00;8.30;;;;;;;30.06;55.95;100371.89;108153;1281;21987;-73
2023/06/20 05:43:51;;;;;;;10.50;7.70;;;;;;;30.16;55.45;100372.23;108249;1286;21994;-72
2023/06/20 05:46:17;;;;;;;9.90;7.30;;;;;;;30.27;55.50;100370.48;108336;1284;22235;-61
2023/06/20 05:48:43;;;;;;;10.00;7.30;;;;;;;30.43;55.80;100369.32;108111;1286;21984;-71
2023/06/20 05:51:15;;;;;;;9.70;7.10;;;;;;;30.65;55.69;100372.80;108122;1278;21994;-61
2023/06/20 05:53:41;;;;;;;8.90;6.90;;;;;;;30.88;54.98;100374.88;108114;1284;23038;-60
2023/06/20 05:56:08;;;;;;;13.10;7.40;;;;;;;31.08;54.32;100375.28;108114;1284;21987;-73
2023/06/20 05:58:33;;;;;;;10.60;7.30;;;;;;;31.28;54.05;100374.63;108143;1284;21994;-72
2023/06/20 06:01:01;;;;;;;8.70;6.60;;;;;;;31.53;54.49;100368.48;108109;1281;21992;-61
2023/06/20 06:03:27;;;;;;;10.90;7.10;;;;;;;31.83;54.22;100364.59;108187;1288;21994;-60
2023/06/20 06:05:52;;;;;;;14.00;7.10;;;;;;;32.12;53.42;100364.72;108098;1287;22002;-70
2023/06/20 06:08:19;;;;;;;9.50;7.50;;;;;;;32.32;52.86;100363.22;108115;1277;21984;-60
2023/06/20 06:10:45;;;;;;;8.00;6.70;;;;;;;32.58;52.90;100365.89;108098;1282;21994;-61
2023/06/20 06:13:11;;;;;;;11.60;6.60;;;;;;;32.83;52.37;100374.52;108144;1280;21986;-60
2023/06/20 06:15:38;;;;;;;7.20;6.30;;;;;;;33.09;52.28;100376.82;108122;1281;22027;-72
2023/06/20 06:18:03;;;;;;;8.70;6.50;;;;;;;33.31;51.56;100378.91;108098;1287;22004;-62
2023/06/20 06:20:29;;;;;;;7.10;6.10;;;;;;;33.47;50.96;100384.59;108114;1285;21990;-64
2023/06/20 06:22:55;;;;;;;8.40;6.70;;;;;;;33.62;50.35;100385.88;108167;1286;21990;-71
2023/06/20 06:25:21;;;;;;;7.30;6.20;;;;;;;33.72;49.88;100384.84;108081;1286;22018;-61
2023/06/20 06:27:47;;;;;;;8.50;6.70;;;;;;;33.86;49.97;100382.72;108157;1277;22077;-61
2023/06/20 06:30:14;;;;;;;9.70;6.90;;;;;;;34.03;49.77;100380.42;108142;1286;21997;-61
2023/06/20 06:32:40;;;;;;;8.30;6.00;;;;;;;34.10;48.84;100380.38;108126;1283;21991;-61
2023/06/20 06:35:09;;;;;;;11.30;6.70;;;;;;;34.06;47.95;100382.06;108231;1281;21985;-71
2023/06/20 06:37:35;;;;;;;9.10;6.40;;;;;;;33.98;47.69;100385.08;108121;1280;22016;-61
2023/06/20 06:40:02;;;;;;;11.30;7.30;;;;;;;33.95;47.76;100384.27;107917;1287;21989;-72
2023/06/20 06:42:28;;;;;;;10.70;6.70;;;;;;;33.97;47.61;100386.27;108283;1284;22066;-73
2023/06/20 06:44:54;;;;;;;10.40;7.00;;;;;;;33.98;47.42;100383.96;108084;1286;22013;-72
2023/06/20 06:47:20;;;;;;;8.30;6.70;;;;;;;34.04;47.12;100385.67;108015;1287;21997;-73
2023/06/20 06:49:45;;;;;;;8.10;6.60;;;;;;;34.18;47.27;100385.31;108068;1286;21996;-68
2023/06/20 06:52:11;;;;;;;15.10;6.80;;;;;;;34.38;46.81;100386.98;108069;1281;21989;-70
2023/06/20 06:54:37;;;;;;;7.30;6.00;;;;;;;34.53;46.54;100388.48;108063;1283;21989;-70
2023/06/20 06:57:03;;;;;;;10.70;7.10;;;;;;;34.75;46.97;100388.91;108104;1284;21984;-69
2023/06/20 06:59:29;;;;;;;10.20;6.30;;;;;;;35.08;47.12;100386.31;108116;1286;21993;-72
2023/06/20 07:01:54;;;;;;;9.30;6.10;;;;;;;35.36;46.20;100378.41;108223;1284;21987;-71
2023/06/20 07:04:20;;;;;;;9.70;6.20;;;;;;;35.65;46.33;100380.67;108058;1284;21994;-71
2023/06/20 07:06:45;;;;;;;10.60;6.30;;;;;;;35.98;45.59;100378.64;108061;1287;22166;-60
2023/06/20 07:09:11;;;;;;;9.20;6.00;;;;;;;36.28;45.63;100381.48;108128;1286;22001;-70
2023/06/20 07:11:37;;;;;;;8.40;5.70;;;;;;;36.62;45.40;100383.23;108110;1277;21967;-69
2023/06/20 07:14:03;;;;;;;7.10;5.90;;;;;;;36.94;44.65;100385.81;108234;1287;21989;-69
2023/06/20 07:16:31;;;;;;;9.90;6.20;;;;;;;37.21;44.08;100383.80;108133;1287;21984;-60
2023/06/20 07:18:58;;;;;;;10.00;6.10;;;;;;;37.48;43.27;100383.16;108151;1284;21987;-61
2023/06/20 07:21:25;;;;;;;9.50;5.60;;;;;;;37.67;43.39;100382.67;108102;1281;21998;-69
2023/06/20 07:23:51;;;;;;;9.00;5.40;;;;;;;37.98;43.40;100388.60;108168;1286;21992;-66
2023/06/20 07:26:17;;;;;;;11.60;6.50;;;;;;;38.28;42.17;100390.55;108037;1280;22449;-68
2023/06/20 07:28:42;;;;;;;12.10;6.20;;;;;;;38.51;41.25;100392.01;108119;1286;21987;-60
2023/06/20 07:31:08;;;;;;;7.30;5.10;;;;;;;38.71;41.35;100393.80;108108;1282;21985;-68
2023/06/20 07:33:34;;;;;;;7.60;5.80;;;;;;;38.97;41.48;100394.73;108084;1286;21993;-60
2023/06/20 07:36:00;;;;;;;10.50;5.40;;;;;;;39.25;41.18;100393.30;108085;1281;21987;-61
2023/06/20 07:38:26;;;;;;;9.60;5.80;;;;;;;39.51;40.16;100396.95;108087;1286;21998;-59
2023/06/20 07:40:52;;;;;;;7.90;6.00;;;;;;;39.61;36.84;100399.04;108084;1287;21987;-68
2023/06/20 07:43:19;;;;;;;8.00;6.00;;;;;;;39.49;37.32;100400.34;108077;1286;22002;-68
2023/06/20 07:45:45;;;;;;;9.40;5.40;;;;;;;39.54;38.66;100407.05;108280;1284;21996;-69
2023/06/20 07:48:11;;;;;;;9.20;5.40;;;;;;;39.78;38.96;100407.33;108221;1277;21985;-70
2023/06/20 07:50:37;;;;;;;10.10;5.80;;;;;;;40.14;38.87;100408.34;108208;1286;22945;-59
2023/06/20 07:53:03;;;;;;;6.80;5.40;;;;;;;40.39;38.23;100402.41;108086;1287;21992;-59
2023/06/20 07:55:28;;;;;;;10.00;5.80;;;;;;;40.54;38.05;100402.96;108164;1281;21989;-70
2023/06/20 07:57:55;;;;;;;7.60;5.30;;;;;;;40.64;37.49;100404.50;108114;1288;22096;-59
2023/06/20 08:00:23;;;;;;;7.00;5.00;;;;;;;40.76;37.45;100405.02;108098;1288;21987;-59
2023/06/20 08:02:48;;;;;;;5.60;4.50;;;;;;;40.96;37.53;100406.30;108134;1283;22794;-68
2023/06/20 08:05:14;;;;;;;8.40;5.60;;;;;;;41.05;36.48;100405.66;108099;1277;21989;-70
2023/06/20 08:07:39;;;;;;;7.50;5.10;;;;;;;41.05;36.25;100410.02;108158;1286;21989;-70
2023/06/20 08:10:07;;;;;;;8.60;5.70;;;;;;;41.12;36.24;100410.81;108105;1287;22740;-60
2023/06/20 08:12:33;;;;;;;7.30;5.20;;;;;;;41.22;36.08;100417.13;108105;1281;21989;-69
2023/06/20 08:14:59;;;;;;;5.90;5.10;;;;;;;41.43;36.26;100417.64;108095;1287;22022;-68
2023/06/20 08:17:25;;;;;;;10.30;5.20;;;;;;;41.70;36.07;100418.45;108078;1287;21994;-59
2023/06/20 08:19:51;;;;;;;9.10;5.10;;;;;;;42.00;35.67;100415.69;108053;1278;22046;-67
2023/06/20 08:22:17;;;;;;;5.90;5.00;;;;;;;42.18;34.87;100411.45;108078;1284;21987;-68
2023/06/20 08:24:42;;;;;;;7.10;5.20;;;;;;;42.30;34.41;100415.74;108113;1287;21987;-60
2023/06/20 08:27:08;;;;;;;7.70;5.30;;;;;;;42.43;33.91;100417.61;108076;1284;21983;-69
2023/06/20 08:29:34;;;;;;;8.90;4.70;;;;;;;42.63;33.60;100422.30;108096;1287;21989;-70
2023/06/20 08:32:00;;;;;;;6.10;5.00;;;;;;;42.86;33.94;100418.72;108335;1287;22877;-70
2023/06/20 08:34:25;;;;;;;7.20;5.00;;;;;;;43.12;33.88;100416.71;108191;1278;22006;-65
2023/06/20 08:36:53;;;;;;;8.10;5.70;;;;;;;43.37;33.54;100417.42;108087;1286;21995;-70
2023/06/20 08:39:18;;;;;;;6.00;5.00;;;;;;;43.62;33.31;100419.45;108079;1286;21979;-60
2023/06/20 08:41:45;;;;;;;7.20;5.10;;;;;;;43.77;32.67;100415.30;108121;1287;21998;-69
2023/06/20 08:44:12;;;;;;;6.80;5.00;;;;;;;43.61;31.97;100420.27;108131;1277;21989;-60
2023/06/20 08:46:39;;;;;;;5.90;5.10;;;;;;;43.37;32.19;100422.42;108100;1287;21987;-60
2023/06/20 08:49:06;;;;;;;6.50;5.30;;;;;;;43.27;32.26;100421.21;108061;1281;22020;-69
2023/06/20 08:51:32;;;;;;;7.80;5.10;;;;;;;43.19;31.50;100415.44;108080;1287;21995;-60
2023/06/20 08:53:57;;;;;;;8.10;5.20;;;;;;;43.16;32.13;100412.53;107817;1286;22047;-60
2023/06/20 08:56:23;;;;;;;7.70;5.00;;;;;;;43.37;32.07;100417.52;107937;1285;21982;-69
2023/06/20 08:58:49;;;;;;;6.30;5.00;;;;;;;43.64;30.95;100419.86;108109;1284;22190;-60
2023/06/20 09:01:14;;;;;;;6.30;5.20;;;;;;;43.60;28.91;100422.45;108101;1287;21998;-60
2023/06/20 09:03:40;;;;;;;8.80;5.80;;;;;;;43.20;28.07;100421.54;108146;1288;22001;-61
2023/06/20 09:06:06;;;;;;;7.10;4.70;;;;;;;42.72;29.73;100425.60;108180;1283;21989;-69
2023/06/20 09:08:43;;;;;;;7.00;4.90;;;;;;;42.43;29.49;100422.91;108132;1284;21995;-63
2023/06/20 09:11:10;;;;;;;5.80;4.90;;;;;;;42.22;30.03;100416.60;108133;1277;21995;-70
2023/06/20 09:13:36;;;;;;;7.30;4.40;;;;;;;42.14;30.28;100415.41;108158;1284;22083;-63
2023/06/20 09:16:09;;;;;;;10.50;5.40;;;;;;;42.22;30.24;100414.94;108161;1286;22005;-62
2023/06/20 09:18:36;;;;;;;10.50;6.50;;;;;;;42.41;30.11;100414.50;108104;1287;21989;-69
2023/06/20 09:21:02;;;;;;;6.90;5.10;;;;;;;42.64;30.16;100413.98;108122;1287;21946;-63
2023/06/20 09:23:29;;;;;;;9.00;5.80;;;;;;;42.97;29.99;100419.02;108117;1286;21995;-61
2023/06/20 09:25:56;;;;;;;11.80;7.10;;;;;;;43.23;29.47;100416.88;108128;1287;21994;-68
2023/06/20 09:28:22;;;;;;;59.80;19.70;;;;;;;43.32;29.41;100414.45;108106;1287;21986;-63
2023/06/20 09:30:48;;;;;;;23.40;12.30;;;;;;;43.31;29.47;100413.56;108128;1287;21984;-62
2023/06/20 09:33:15;;;;;;;22.50;10.00;;;;;;;43.18;29.12;100410.46;107968;1288;21987;-68
2023/06/20 09:35:41;;;;;;;20.20;9.20;;;;;;;42.93;29.18;100412.84;108080;1280;22455;-70
2023/06/20 09:38:07;;;;;;;29.20;10.60;;;;;;;42.74;29.20;100411.70;108162;1287;22033;-63
2023/06/20 09:40:42;;;;;;;16.40;7.50;;;;;;;42.54;28.87;100409.98;108087;1284;21989;-69
2023/06/20 09:43:07;;;;;;;15.40;6.40;;;;;;;42.22;28.77;100412.30;108078;1278;21988;-69
2023/06/20 09:45:33;;;;;;;9.50;6.30;;;;;;;41.84;28.46;100413.27;107850;1284;21989;-61
2023/06/20 09:47:58;;;;;;;8.30;5.20;;;;;;;41.52;28.82;100409.55;108087;1284;21983;-69
2023/06/20 09:50:24;;;;;;;8.90;5.80;;;;;;;41.38;29.02;100408.67;107999;1280;21983;-62
2023/06/20 09:53:10;;;;;;;15.30;7.50;;;;;;;41.29;28.87;100407.36;108008;1281;21993;-61
2023/06/20 09:55:36;;;;;;;11.90;6.00;;;;;;;41.12;28.99;100407.59;108126;1288;22028;-63
2023/06/20 09:58:03;;;;;;;9.20;6.00;;;;;;;40.95;28.88;100402.89;108151;1284;21998;-62
2023/06/20 10:00:30;;;;;;;11.00;6.50;;;;;;;40.83;29.14;100405.73;108133;1287;22027;-61
2023/06/20 10:02:58;;;;;;;19.00;7.90;;;;;;;40.77;28.97;100403.71;108202;1288;21990;-70
2023/06/20 10:05:24;;;;;;;7.70;5.50;;;;;;;40.67;28.86;100404.45;108176;1288;21987;-69
2023/06/20 10:07:49;;;;;;;9.80;5.20;;;;;;;40.53;29.13;100402.08;108010;1281;21993;-61
2023/06/20 10:10:16;;;;;;;10.70;5.80;;;;;;;40.42;29.06;100401.98;108138;1288;21989;-69
2023/06/20 10:12:43;;;;;;;8.90;5.30;;;;;;;40.19;28.97;100400.27;108111;1286;22006;-62
2023/06/20 10:15:09;;;;;;;9.10;6.50;;;;;;;40.07;29.09;100404.39;108052;1288;22011;-63
2023/06/20 10:17:39;;;;;;;7.70;5.80;;;;;;;40.05;29.44;100397.79;108009;1287;22001;-62
2023/06/20 10:20:08;;;;;;;9.10;5.90;;;;;;;40.23;29.17;100393.48;108094;1286;22000;-61
2023/06/20 10:22:35;;;;;;;6.50;4.60;;;;;;;40.34;29.45;100388.73;108155;1280;23661;-61
2023/06/20 10:25:11;;;;;;;7.60;4.70;;;;;;;40.69;29.17;100391.13;108141;1277;21986;-68
2023/06/20 10:27:41;;;;;;;8.20;5.10;;;;;;;41.13;28.87;100391.35;108285;1277;21998;-70
2023/06/20 10:30:07;;;;;;;;;;;;;;;41.58;28.85;100394.94;108414;1287;21967;-61
2023/06/20 10:32:33;;;;;;;9.00;5.30;;;;;;;42.16;28.81;100395.46;108235;1286;23760;-70
2023/06/20 10:35:09;;;;;;;8.30;5.10;;;;;;;42.80;28.60;100394.29;108291;1284;21995;-69
2023/06/20 10:37:38;;;;;;;8.10;4.80;;;;;;;43.40;28.23;100399.83;108365;1277;22024;-62
2023/06/20 10:40:06;;;;;;;7.10;5.30;;;;;;;43.95;27.58;100400.36;108649;1284;23052;-63
2023/06/20 10:42:42;;;;;;;7.60;5.50;;;;;;;44.11;26.15;100394.16;108311;1287;21984;-60
2023/06/20 10:45:24;;;;;;;8.60;4.60;;;;;;;44.11;27.14;100394.93;108197;1286;21985;-68
2023/06/20 10:47:50;;;;;;;6.00;4.60;;;;;;;44.43;26.63;100394.63;108060;1280;21994;-60
2023/06/20 10:50:16;;;;;;;6.20;4.50;;;;;;;44.53;26.37;100397.38;108106;1282;22026;-61
2023/06/20 10:52:42;;;;;;;6.20;4.80;;;;;;;44.34;26.75;100397.40;108049;1283;22007;-62
2023/06/20 10:55:14;;;;;;;6.20;4.20;;;;;;;44.19;26.57;100398.23;108055;1286;21987;-69
2023/06/20 10:57:47;;;;;;;10.40;4.80;;;;;;;44.07;26.27;100396.73;108173;1285;22029;-61
2023/06/20 11:00:14;;;;;;;5.40;4.70;;;;;;;43.79;26.24;100397.44;108190;1281;21992;-61
2023/06/20 11:02:41;;;;;;;6.70;4.50;;;;;;;43.56;26.47;100396.26;108120;1286;21959;-69
2023/06/20 11:05:09;;;;;;;6.10;4.80;;;;;;;43.38;26.12;100394.80;108025;1286;21991;-70
2023/06/20 11:07:54;;;;;;;6.80;4.70;;;;;;;43.22;26.10;100394.52;108197;1286;23615;-61
2023/06/20 11:10:21;;;;;;;6.50;4.50;;;;;;;43.00;26.13;100394.77;108033;1287;21996;-61
2023/06/20 11:12:47;;;;;;;7.60;4.40;;;;;;;42.63;25.94;100397.83;108166;1286;21991;-63